Time;durP1;ratioP1;P1;durP2;ratioP2;P2;SDS_P1;SDS_P2;PMS_P1;PMS_P2;Temp;Humidity;BMP_temperature;BMP_pressure;BME280_temperature;BME280_humidity;BME280_pressure;Samples;Min_cycle;Max_cycle;Signal;HPM_P1;HPM_P2
2021/09/30 00:00:06;;;;;;;9.52;5.57;;;;;;;;;;5002357;28;20038;-84
2021/09/30 00:02:32;;;;;;;11.07;6.20;;;;;;;;;;5002501;28;20029;-84
2021/09/30 00:04:58;;;;;;;9.63;5.78;;;;;;;;;;5002613;28;20029;-84
2021/09/30 00:07:24;;;;;;;10.23;5.75;;;;;;;;;;5041894;28;20115;-84
2021/09/30 00:09:50;;;;;;;8.63;6.10;;;;;;;;;;5080377;28;20032;-84
2021/09/30 00:12:31;;;;;;;12.63;6.05;;;;;;;;;;5080035;28;20035;-84
2021/09/30 00:15:02;;;;;;;13.48;5.70;;;;;;;;;;5080171;28;20021;-85
2021/09/30 00:42:22;;;;;;;14.80;8.10;;;;;;;;;;4998726;28;20045;-86
2021/09/30 00:50:13;;;;;;;16.80;11.57;;;;;;;;;;4998522;28;20034;-86
2021/09/30 02:23:25;;;;;;;16.50;8.40;;;;;;;;;;5078050;28;20068;-86
2021/09/30 02:28:41;;;;;;;15.45;8.95;;;;;;;;;;5077922;28;20085;-86
2021/09/30 02:39:52;;;;;;;16.77;9.88;;;;;;;;;;5078025;28;20066;-89
2021/09/30 02:58:56;;;;;;;17.48;10.88;;;;;;;;;;5078046;28;20079;-86
2021/09/30 03:01:25;;;;;;;14.57;11.00;;;;;;;;;;5076432;28;20033;-86
2021/09/30 03:03:53;;;;;;;15.07;10.15;;;;;;;;;;5077538;28;20036;-87
2021/09/30 03:06:19;;;;;;;15.27;10.32;;;;;;;;;;5077376;28;20052;-86
2021/09/30 03:08:48;;;;;;;16.77;9.90;;;;;;;;;;5077558;28;20051;-86
2021/09/30 03:11:15;;;;;;;14.65;8.95;;;;;;;;;;5077223;28;20027;-87
2021/09/30 03:13:44;;;;;;;17.73;10.27;;;;;;;;;;5076529;28;20441;-87
2021/09/30 03:16:16;;;;;;;14.93;9.73;;;;;;;;;;5076464;28;20151;-87
2021/09/30 03:23:38;;;;;;;19.23;9.98;;;;;;;;;;5077380;28;20482;-88
2021/09/30 03:26:04;;;;;;;13.35;9.63;;;;;;;;;;5077306;28;20028;-86
2021/09/30 03:28:31;;;;;;;20.17;9.82;;;;;;;;;;5077128;28;20051;-87
2021/09/30 03:30:59;;;;;;;16.42;9.38;;;;;;;;;;5077085;28;20032;-87
2021/09/30 03:33:25;;;;;;;16.15;10.38;;;;;;;;;;5077427;28;20062;-87
2021/09/30 03:35:51;;;;;;;22.73;9.68;;;;;;;;;;5077315;28;20025;-87
2021/09/30 03:38:19;;;;;;;17.33;9.98;;;;;;;;;;5076203;28;20017;-86
2021/09/30 03:40:45;;;;;;;17.92;9.60;;;;;;;;;;5076145;28;20410;-86
2021/09/30 03:43:11;;;;;;;19.30;10.35;;;;;;;;;;5076194;28;20039;-86
2021/09/30 03:45:38;;;;;;;14.70;10.05;;;;;;;;;;5077168;28;20027;-85
2021/09/30 03:48:04;;;;;;;17.13;11.10;;;;;;;;;;5076852;28;20017;-85
2021/09/30 03:50:42;;;;;;;17.42;10.88;;;;;;;;;;5075878;28;20067;-87
2021/09/30 04:01:11;;;;;;;18.10;12.40;;;;;;;;;;5057088;28;20048;-86
2021/09/30 04:03:37;;;;;;;19.58;12.57;;;;;;;;;;5055828;28;20031;-86
2021/09/30 04:06:03;;;;;;;20.17;11.88;;;;;;;;;;5056992;28;20028;-85
2021/09/30 04:08:29;;;;;;;19.75;12.02;;;;;;;;;;5061161;28;20024;-86
2021/09/30 04:10:56;;;;;;;20.23;11.32;;;;;;;;;;5059305;28;20425;-86
2021/09/30 04:13:22;;;;;;;17.30;10.48;;;;;;;;;;5059173;28;20025;-85
2021/09/30 04:15:50;;;;;;;20.08;10.80;;;;;;;;;;5059246;28;20033;-85
2021/09/30 04:18:16;;;;;;;20.17;11.73;;;;;;;;;;5059060;28;20423;-85
2021/09/30 04:20:43;;;;;;;14.95;10.23;;;;;;;;;;5060126;28;20040;-86
2021/09/30 04:23:09;;;;;;;17.10;10.63;;;;;;;;;;5060022;28;20028;-85
2021/09/30 04:25:35;;;;;;;19.40;10.52;;;;;;;;;;5059957;28;20025;-85
2021/09/30 04:28:01;;;;;;;17.52;10.20;;;;;;;;;;5060117;28;20018;-86
2021/09/30 04:30:28;;;;;;;18.00;9.75;;;;;;;;;;5059759;28;20045;-86
2021/09/30 04:32:54;;;;;;;18.27;10.52;;;;;;;;;;5059791;28;20029;-86
2021/09/30 04:35:20;;;;;;;19.13;10.18;;;;;;;;;;5059878;28;20025;-88
2021/09/30 04:37:46;;;;;;;14.95;10.13;;;;;;;;;;5058826;28;20100;-87
2021/09/30 04:40:13;;;;;;;17.35;10.25;;;;;;;;;;5060050;28;20025;-86
2021/09/30 04:42:39;;;;;;;15.38;9.48;;;;;;;;;;5058801;28;20124;-87
2021/09/30 04:45:05;;;;;;;17.13;9.70;;;;;;;;;;5058597;28;20040;-87
2021/09/30 04:47:31;;;;;;;15.48;9.25;;;;;;;;;;5059764;28;20040;-87
2021/09/30 04:49:57;;;;;;;16.40;8.85;;;;;;;;;;5059734;28;20021;-87
2021/09/30 04:52:23;;;;;;;16.80;9.63;;;;;;;;;;5059451;28;20049;-85
2021/09/30 04:54:50;;;;;;;18.05;9.25;;;;;;;;;;5059737;28;20021;-85
2021/09/30 04:57:16;;;;;;;15.75;9.55;;;;;;;;;;5059279;28;20017;-86
2021/09/30 04:59:42;;;;;;;14.63;8.88;;;;;;;;;;5059292;28;20430;-86
2021/09/30 05:02:08;;;;;;;13.45;8.10;;;;;;;;;;5059361;28;20429;-85
2021/09/30 05:04:34;;;;;;;19.67;9.45;;;;;;;;;;5059383;28;20361;-86
2021/09/30 05:07:00;;;;;;;23.08;11.95;;;;;;;;;;5059247;28;20029;-86
2021/09/30 05:09:28;;;;;;;37.10;16.60;;;;;;;;;;5058234;28;20078;-86
2021/09/30 05:11:57;;;;;;;42.30;21.13;;;;;;;;;;5058979;28;20044;-85
2021/09/30 05:14:24;;;;;;;52.58;28.75;;;;;;;;;;5059013;28;20461;-86
2021/09/30 05:16:51;;;;;;;36.67;21.58;;;;;;;;;;5057678;28;20349;-85
2021/09/30 05:19:17;;;;;;;49.45;28.50;;;;;;;;;;5058119;28;20403;-86
2021/09/30 05:21:44;;;;;;;41.80;25.17;;;;;;;;;;5058949;28;20045;-86
2021/09/30 05:24:10;;;;;;;26.33;16.83;;;;;;;;;;5058961;28;20021;-86
2021/09/30 05:26:36;;;;;;;22.02;14.45;;;;;;;;;;5058807;28;20032;-86
2021/09/30 05:29:03;;;;;;;21.73;12.93;;;;;;;;;;5058868;28;20373;-85
2021/09/30 05:31:29;;;;;;;23.63;15.40;;;;;;;;;;5058722;28;20048;-86
2021/09/30 05:33:55;;;;;;;32.05;17.23;;;;;;;;;;5058721;28;20025;-86
2021/09/30 05:36:24;;;;;;;29.02;16.95;;;;;;;;;;5057693;28;20182;-87
2021/09/30 05:38:51;;;;;;;29.27;16.23;;;;;;;;;;5060308;28;20066;-86
2021/09/30 05:41:20;;;;;;;28.77;18.67;;;;;;;;;;5078191;28;20326;-88
2021/09/30 05:43:58;;;;;;;32.13;16.17;;;;;;;;;;5058748;28;20024;-84
2021/09/30 05:47:02;;;;;;;27.70;16.60;;;;;;;;;;5057564;28;20113;-90
2021/09/30 05:49:28;;;;;;;34.92;17.98;;;;;;;;;;5057144;28;20036;-79
2021/09/30 05:51:54;;;;;;;25.80;14.57;;;;;;;;;;5057781;28;20036;-79
2021/09/30 05:54:20;;;;;;;24.63;16.85;;;;;;;;;;5057731;28;20028;-80
2021/09/30 05:56:46;;;;;;;27.02;16.83;;;;;;;;;;5057957;28;20021;-79
2021/09/30 05:59:16;;;;;;;22.38;15.05;;;;;;;;;;5057752;28;20060;-80
2021/09/30 06:14:49;;;;;;;18.35;9.80;;;;;;;;;;5057668;28;20469;-79
2021/09/30 06:17:15;;;;;;;16.58;10.77;;;;;;;;;;5056291;28;20056;-80
2021/09/30 06:19:41;;;;;;;20.95;13.57;;;;;;;;;;5057332;28;20356;-80
2021/09/30 06:22:07;;;;;;;19.80;13.05;;;;;;;;;;5057269;28;20025;-80
2021/09/30 06:24:34;;;;;;;16.08;10.73;;;;;;;;;;5056261;28;20323;-80
2021/09/30 06:27:00;;;;;;;15.38;9.52;;;;;;;;;;5057161;28;20384;-80
2021/09/30 06:29:26;;;;;;;15.07;9.25;;;;;;;;;;5056145;28;20128;-79
2021/09/30 06:31:53;;;;;;;13.73;9.65;;;;;;;;;;5057080;28;20033;-79
2021/09/30 06:34:19;;;;;;;14.55;9.73;;;;;;;;;;5056941;28;20405;-80
2021/09/30 06:36:45;;;;;;;15.57;9.73;;;;;;;;;;5056118;28;20029;-79
2021/09/30 06:39:11;;;;;;;14.60;9.20;;;;;;;;;;5057012;28;20100;-80
2021/09/30 06:41:37;;;;;;;15.18;9.25;;;;;;;;;;5057133;28;20384;-79
2021/09/30 06:44:03;;;;;;;21.10;10.05;;;;;;;;;;5056696;28;20017;-80
2021/09/30 06:46:30;;;;;;;17.67;9.95;;;;;;;;;;5056627;28;20025;-79
2021/09/30 06:48:56;;;;;;;18.13;10.40;;;;;;;;;;5056049;28;20040;-80
2021/09/30 06:51:22;;;;;;;16.15;10.30;;;;;;;;;;5057185;28;20379;-79
2021/09/30 06:53:48;;;;;;;16.55;10.65;;;;;;;;;;5057021;28;20083;-80
2021/09/30 06:56:16;;;;;;;15.30;10.18;;;;;;;;;;5056883;28;20312;-80
2021/09/30 06:58:45;;;;;;;15.63;10.90;;;;;;;;;;5057200;28;20056;-80
2021/09/30 07:01:12;;;;;;;17.55;11.50;;;;;;;;;;5056997;28;20044;-80
2021/09/30 07:03:38;;;;;;;16.02;11.55;;;;;;;;;;5057072;28;20025;-80
2021/09/30 07:06:05;;;;;;;15.10;10.80;;;;;;;;;;5056818;28;20021;-80
2021/09/30 07:08:31;;;;;;;17.25;10.75;;;;;;;;;;5056816;28;20053;-80
2021/09/30 07:10:57;;;;;;;20.02;11.18;;;;;;;;;;5056650;28;20029;-79
2021/09/30 07:13:25;;;;;;;19.52;13.13;;;;;;;;;;5057006;28;20025;-80
2021/09/30 07:15:51;;;;;;;29.10;18.05;;;;;;;;;;5056702;28;20139;-80
2021/09/30 07:18:18;;;;;;;25.48;15.30;;;;;;;;;;5056714;28;20031;-80
2021/09/30 07:20:48;;;;;;;19.92;12.73;;;;;;;;;;5056779;28;20043;-79
2021/09/30 07:23:14;;;;;;;22.38;12.98;;;;;;;;;;5056708;28;20025;-80
2021/09/30 07:25:40;;;;;;;20.98;12.32;;;;;;;;;;5056499;28;20407;-80
2021/09/30 07:28:07;;;;;;;22.70;11.82;;;;;;;;;;5056602;28;20032;-80
2021/09/30 07:30:33;;;;;;;22.35;12.38;;;;;;;;;;5056380;28;20052;-80
2021/09/30 07:33:00;;;;;;;19.05;10.45;;;;;;;;;;5056719;28;20036;-80
2021/09/30 07:35:26;;;;;;;19.65;11.60;;;;;;;;;;5056817;28;20024;-81
2021/09/30 07:37:53;;;;;;;41.40;28.25;;;;;;;;;;5056497;28;20033;-80
2021/09/30 07:40:19;;;;;;;25.95;16.58;;;;;;;;;;5058253;28;20090;-80
2021/09/30 07:42:46;;;;;;;21.77;14.57;;;;;;;;;;5060246;28;20032;-81
2021/09/30 07:45:12;;;;;;;40.63;23.95;;;;;;;;;;5059134;28;20513;-80
2021/09/30 07:47:38;;;;;;;26.17;17.83;;;;;;;;;;5060033;28;20025;-80
2021/09/30 07:50:04;;;;;;;25.80;16.73;;;;;;;;;;5059019;28;20033;-80
2021/09/30 07:52:31;;;;;;;20.27;13.60;;;;;;;;;;5059038;28;20033;-80
2021/09/30 07:54:58;;;;;;;28.92;16.50;;;;;;;;;;5060181;28;20039;-80
2021/09/30 07:57:24;;;;;;;33.63;20.60;;;;;;;;;;5058820;28;20063;-81
2021/09/30 07:59:50;;;;;;;25.00;14.60;;;;;;;;;;5059149;28;20037;-80
2021/09/30 08:02:16;;;;;;;24.42;15.48;;;;;;;;;;5059884;28;20025;-81
2021/09/30 08:04:42;;;;;;;21.90;15.55;;;;;;;;;;5060190;28;20033;-80
2021/09/30 08:07:08;;;;;;;30.15;17.73;;;;;;;;;;5059953;28;20368;-81
2021/09/30 08:09:34;;;;;;;23.42;13.68;;;;;;;;;;5059994;28;20331;-81
2021/09/30 08:12:01;;;;;;;22.98;13.88;;;;;;;;;;5059666;28;20090;-81
2021/09/30 08:14:27;;;;;;;24.27;15.05;;;;;;;;;;5059852;28;20021;-81
2021/09/30 08:16:53;;;;;;;26.20;11.85;;;;;;;;;;5059348;28;20017;-81
2021/09/30 08:19:19;;;;;;;21.17;13.60;;;;;;;;;;5059713;28;20106;-81
2021/09/30 08:21:45;;;;;;;25.63;12.13;;;;;;;;;;5058402;28;20033;-81
2021/09/30 08:24:14;;;;;;;20.60;9.80;;;;;;;;;;5072776;28;20025;-80
2021/09/30 08:26:40;;;;;;;14.43;9.30;;;;;;;;;;5079385;28;20024;-81
2021/09/30 08:29:07;;;;;;;17.23;11.10;;;;;;;;;;5078381;28;20044;-81
2021/09/30 08:31:33;;;;;;;17.05;10.45;;;;;;;;;;5078327;28;20037;-80
2021/09/30 08:34:00;;;;;;;16.85;10.02;;;;;;;;;;5078199;28;20043;-80
2021/09/30 08:36:26;;;;;;;14.65;9.82;;;;;;;;;;5062951;28;20062;-81
2021/09/30 08:38:53;;;;;;;13.88;8.93;;;;;;;;;;5079331;28;20092;-80
2021/09/30 08:41:22;;;;;;;19.25;9.90;;;;;;;;;;5079193;28;20042;-81
2021/09/30 08:43:49;;;;;;;13.00;9.00;;;;;;;;;;5079211;28;20031;-81
2021/09/30 08:46:15;;;;;;;16.52;9.70;;;;;;;;;;5078174;28;20025;-80
2021/09/30 08:48:41;;;;;;;19.10;9.30;;;;;;;;;;5079018;28;20029;-81
2021/09/30 08:51:09;;;;;;;11.93;8.63;;;;;;;;;;5078441;28;20319;-81
2021/09/30 08:53:35;;;;;;;14.13;7.80;;;;;;;;;;5078934;28;20410;-81
2021/09/30 08:56:03;;;;;;;15.70;8.93;;;;;;;;;;5079040;28;20024;-81
2021/09/30 08:58:29;;;;;;;15.70;9.50;;;;;;;;;;5077934;28;20028;-81
2021/09/30 09:00:58;;;;;;;16.67;8.50;;;;;;;;;;5078889;28;20032;-81
2021/09/30 09:03:30;;;;;;;15.43;8.20;;;;;;;;;;5078947;28;20058;-80
2021/09/30 09:05:57;;;;;;;16.52;7.97;;;;;;;;;;5078959;28;20084;-81
2021/09/30 09:08:23;;;;;;;13.90;8.15;;;;;;;;;;5077433;28;20149;-81
2021/09/30 09:10:51;;;;;;;17.95;8.07;;;;;;;;;;5078596;28;20325;-80
2021/09/30 09:13:19;;;;;;;14.05;7.43;;;;;;;;;;5078625;28;20066;-81
2021/09/30 09:15:48;;;;;;;19.60;10.75;;;;;;;;;;5078515;28;20303;-81
2021/09/30 09:18:14;;;;;;;17.33;11.93;;;;;;;;;;5078632;28;20058;-81
2021/09/30 09:20:41;;;;;;;20.83;8.75;;;;;;;;;;5078369;28;20016;-80
2021/09/30 09:23:09;;;;;;;16.70;9.20;;;;;;;;;;5078574;28;20042;-81
2021/09/30 09:25:35;;;;;;;20.88;11.45;;;;;;;;;;5078530;28;20028;-81
2021/09/30 09:28:01;;;;;;;19.63;9.55;;;;;;;;;;5078194;28;20411;-81
2021/09/30 09:30:30;;;;;;;16.63;9.55;;;;;;;;;;5078266;28;20060;-81
2021/09/30 09:33:09;;;;;;;26.58;17.48;;;;;;;;;;5078390;28;20033;-81
2021/09/30 09:35:45;;;;;;;17.70;10.35;;;;;;;;;;5078191;28;20314;-81
2021/09/30 09:38:12;;;;;;;41.78;26.00;;;;;;;;;;5077298;28;20078;-80
2021/09/30 09:40:39;;;;;;;23.20;16.02;;;;;;;;;;5078257;28;20065;-80
2021/09/30 09:43:24;;;;;;;23.80;16.20;;;;;;;;;;5078173;28;20024;-80
2021/09/30 09:45:50;;;;;;;15.10;8.45;;;;;;;;;;5078022;28;20233;-81
2021/09/30 09:48:16;;;;;;;10.70;6.65;;;;;;;;;;5077921;28;20027;-81
2021/09/30 09:50:42;;;;;;;12.25;7.30;;;;;;;;;;5076834;28;20021;-81
2021/09/30 09:53:08;;;;;;;16.42;7.07;;;;;;;;;;5076728;28;20033;-80
2021/09/30 09:55:34;;;;;;;11.52;7.18;;;;;;;;;;5076816;28;20322;-81
2021/09/30 09:58:11;;;;;;;13.85;7.45;;;;;;;;;;5077693;28;20481;-80
2021/09/30 10:00:57;;;;;;;14.00;7.45;;;;;;;;;;5077541;28;20044;-80
2021/09/30 10:03:28;;;;;;;13.55;7.70;;;;;;;;;;5077435;28;20346;-80
2021/09/30 10:05:55;;;;;;;13.13;7.55;;;;;;;;;;5077633;28;20433;-80
2021/09/30 10:08:22;;;;;;;10.23;7.07;;;;;;;;;;5076527;28;20071;-80
2021/09/30 10:10:48;;;;;;;11.25;6.68;;;;;;;;;;5077645;28;20025;-80
2021/09/30 10:13:15;;;;;;;12.27;7.35;;;;;;;;;;5077474;28;20032;-80
2021/09/30 10:15:41;;;;;;;12.68;8.30;;;;;;;;;;5076415;28;20052;-80
2021/09/30 10:18:09;;;;;;;12.18;7.07;;;;;;;;;;5076359;28;20119;-80
2021/09/30 10:20:35;;;;;;;14.73;7.40;;;;;;;;;;5076282;28;20060;-80
2021/09/30 10:23:05;;;;;;;11.25;7.20;;;;;;;;;;5076394;28;20368;-80
2021/09/30 10:25:34;;;;;;;15.23;7.22;;;;;;;;;;5077355;28;20410;-80
2021/09/30 10:28:01;;;;;;;12.60;6.95;;;;;;;;;;5077286;28;20433;-80
2021/09/30 10:30:48;;;;;;;13.65;7.15;;;;;;;;;;5076257;28;20338;-80
2021/09/30 10:33:15;;;;;;;11.27;6.82;;;;;;;;;;5076221;28;20063;-80
2021/09/30 10:35:43;;;;;;;14.05;7.05;;;;;;;;;;5077324;28;20062;-80
2021/09/30 10:38:29;;;;;;;11.80;6.90;;;;;;;;;;5077238;28;20025;-81
2021/09/30 10:41:01;;;;;;;8.95;5.95;;;;;;;;;;5076938;28;20024;-79
2021/09/30 10:43:32;;;;;;;13.38;6.15;;;;;;;;;;5077339;28;20311;-79
2021/09/30 10:45:58;;;;;;;13.95;6.88;;;;;;;;;;5076785;28;20024;-79
2021/09/30 10:48:24;;;;;;;13.15;6.72;;;;;;;;;;5075762;28;20425;-79
2021/09/30 10:50:58;;;;;;;15.45;6.93;;;;;;;;;;5077201;28;20025;-78
2021/09/30 10:53:43;;;;;;;13.20;6.50;;;;;;;;;;5076980;28;20436;-79
2021/09/30 10:56:41;;;;;;;13.95;7.32;;;;;;;;;;5077278;28;20035;-79
2021/09/30 10:59:07;;;;;;;14.93;6.78;;;;;;;;;;5077111;28;20020;-79
2021/09/30 11:01:34;;;;;;;11.65;6.68;;;;;;;;;;5075999;28;20076;-79
2021/09/30 11:04:00;;;;;;;12.57;6.60;;;;;;;;;;5076927;28;20430;-79
2021/09/30 11:06:27;;;;;;;12.88;7.05;;;;;;;;;;5076142;28;20082;-79
2021/09/30 11:09:14;;;;;;;13.35;7.82;;;;;;;;;;5076684;28;20024;-79
2021/09/30 11:11:41;;;;;;;13.30;7.18;;;;;;;;;;5075786;28;20322;-79
2021/09/30 11:14:07;;;;;;;16.00;6.97;;;;;;;;;;5075771;28;20024;-78
2021/09/30 11:16:35;;;;;;;498.48;41.60;;;;;;;;;;5080763;28;20104;-78
2021/09/30 11:19:01;;;;;;;304.38;30.98;;;;;;;;;;5080742;28;20116;-79
2021/09/30 11:21:30;;;;;;;39.17;9.95;;;;;;;;;;5081037;28;20025;-79
2021/09/30 11:23:58;;;;;;;21.45;9.50;;;;;;;;;;5080697;28;20017;-79
2021/09/30 11:26:24;;;;;;;22.02;10.38;;;;;;;;;;5080965;28;20028;-79
2021/09/30 11:28:52;;;;;;;20.30;10.60;;;;;;;;;;5080637;28;20044;-79
2021/09/30 11:31:31;;;;;;;23.10;10.52;;;;;;;;;;5080392;28;20044;-79
2021/09/30 11:34:01;;;;;;;26.95;9.98;;;;;;;;;;5079482;28;20051;-79
2021/09/30 11:36:30;;;;;;;17.90;8.75;;;;;;;;;;5080473;28;20028;-79
2021/09/30 11:38:57;;;;;;;22.83;11.23;;;;;;;;;;5080458;28;20052;-79
2021/09/30 11:41:30;;;;;;;20.23;10.00;;;;;;;;;;5080335;28;20028;-79
2021/09/30 11:43:56;;;;;;;20.35;11.57;;;;;;;;;;5079157;28;20033;-79
2021/09/30 11:46:23;;;;;;;18.52;10.90;;;;;;;;;;5080161;28;20031;-79
2021/09/30 11:48:56;;;;;;;16.95;9.00;;;;;;;;;;5080211;28;20062;-79
2021/09/30 11:51:42;;;;;;;22.40;9.07;;;;;;;;;;5079906;28;20425;-79
2021/09/30 11:54:12;;;;;;;20.83;9.52;;;;;;;;;;5079885;28;20024;-79
2021/09/30 11:56:46;;;;;;;23.08;11.23;;;;;;;;;;5080140;28;20021;-79
2021/09/30 11:59:13;;;;;;;18.13;8.32;;;;;;;;;;5080397;28;20070;-79
2021/09/30 12:01:42;;;;;;;25.63;8.63;;;;;;;;;;5080065;28;20028;-79
2021/09/30 12:04:08;;;;;;;84.63;12.38;;;;;;;;;;5080068;28;20020;-79
2021/09/30 12:06:41;;;;;;;54.05;27.10;;;;;;;;;;5078842;28;20111;-78
2021/09/30 12:09:09;;;;;;;42.72;26.95;;;;;;;;;;5079790;28;20403;-79
2021/09/30 12:11:36;;;;;;;44.13;17.45;;;;;;;;;;5079939;28;20453;-79
2021/09/30 12:14:03;;;;;;;44.22;21.90;;;;;;;;;;5079870;28;20063;-79
2021/09/30 12:16:29;;;;;;;50.75;32.58;;;;;;;;;;5079828;28;20116;-79
2021/09/30 12:18:59;;;;;;;27.92;16.88;;;;;;;;;;5079619;28;20068;-79
2021/09/30 12:21:39;;;;;;;33.97;19.92;;;;;;;;;;5078660;28;20028;-79
2021/09/30 12:24:05;;;;;;;45.15;29.95;;;;;;;;;;5079684;28;20029;-79
2021/09/30 12:26:32;;;;;;;33.95;16.58;;;;;;;;;;5077311;28;20066;-79
2021/09/30 12:28:58;;;;;;;31.38;14.13;;;;;;;;;;5078494;28;20123;-79
2021/09/30 12:31:25;;;;;;;16.13;8.93;;;;;;;;;;5079188;28;20377;-79
2021/09/30 12:33:51;;;;;;;29.00;14.75;;;;;;;;;;5078598;28;20115;-79
2021/09/30 12:36:17;;;;;;;28.20;16.80;;;;;;;;;;5079415;28;20074;-79
2021/09/30 12:38:59;;;;;;;21.70;12.10;;;;;;;;;;5078255;28;20028;-79
2021/09/30 12:41:26;;;;;;;32.22;14.70;;;;;;;;;;5079622;28;20031;-79
2021/09/30 12:43:52;;;;;;;24.75;12.98;;;;;;;;;;5078314;28;20329;-79
2021/09/30 12:46:19;;;;;;;42.80;18.50;;;;;;;;;;5079063;28;20027;-79
2021/09/30 12:48:49;;;;;;;30.13;13.73;;;;;;;;;;5079161;28;20440;-79
2021/09/30 12:51:17;;;;;;;43.78;14.90;;;;;;;;;;5079068;28;20046;-79
2021/09/30 12:53:48;;;;;;;42.33;25.83;;;;;;;;;;5078218;28;20024;-79
2021/09/30 12:56:16;;;;;;;35.72;18.00;;;;;;;;;;5078984;28;20021;-79
2021/09/30 12:58:45;;;;;;;48.20;25.98;;;;;;;;;;5079051;28;20033;-79
2021/09/30 13:01:32;;;;;;;36.00;18.33;;;;;;;;;;5078783;28;20024;-79
2021/09/30 13:04:06;;;;;;;48.65;30.73;;;;;;;;;;5078858;28;20027;-79
2021/09/30 13:06:32;;;;;;;23.55;10.52;;;;;;;;;;5078724;28;20024;-79
2021/09/30 13:08:58;;;;;;;23.85;10.20;;;;;;;;;;5078898;28;20406;-79
2021/09/30 13:11:24;;;;;;;22.50;8.98;;;;;;;;;;5078400;28;20045;-79
2021/09/30 13:14:09;;;;;;;17.95;8.98;;;;;;;;;;5078792;28;20054;-79
2021/09/30 13:16:35;;;;;;;23.08;9.75;;;;;;;;;;5078627;28;20075;-79
2021/09/30 13:19:01;;;;;;;25.27;10.80;;;;;;;;;;5078478;28;20020;-79
2021/09/30 13:21:27;;;;;;;26.33;10.88;;;;;;;;;;5077570;28;20039;-79
2021/09/30 13:23:53;;;;;;;23.15;11.20;;;;;;;;;;5078436;28;20035;-79
2021/09/30 13:26:19;;;;;;;18.58;10.20;;;;;;;;;;5078430;28;20319;-79
2021/09/30 13:28:45;;;;;;;23.60;9.50;;;;;;;;;;5078372;28;20330;-79
2021/09/30 13:31:11;;;;;;;17.98;10.05;;;;;;;;;;5078232;28;20119;-79
2021/09/30 13:33:37;;;;;;;18.73;10.38;;;;;;;;;;5078307;28;20019;-79
2021/09/30 13:36:03;;;;;;;21.75;9.98;;;;;;;;;;5078187;28;20021;-80
2021/09/30 13:38:29;;;;;;;23.30;12.27;;;;;;;;;;5077759;28;20344;-79
2021/09/30 13:40:55;;;;;;;23.00;10.88;;;;;;;;;;5078380;28;20021;-79
2021/09/30 13:43:21;;;;;;;22.67;11.07;;;;;;;;;;5078174;28;20021;-79
2021/09/30 13:45:47;;;;;;;24.08;11.88;;;;;;;;;;5078106;28;20028;-79
2021/09/30 13:48:13;;;;;;;19.77;10.85;;;;;;;;;;5078316;28;20033;-79
2021/09/30 13:50:39;;;;;;;22.35;10.90;;;;;;;;;;5077996;28;20452;-79
2021/09/30 13:53:05;;;;;;;21.67;10.88;;;;;;;;;;5077914;28;20029;-79
2021/09/30 13:55:32;;;;;;;25.02;11.10;;;;;;;;;;5077645;28;20031;-79
2021/09/30 13:57:59;;;;;;;29.88;11.30;;;;;;;;;;5077793;28;20020;-79
2021/09/30 14:00:25;;;;;;;22.45;10.93;;;;;;;;;;5077868;28;20322;-79
2021/09/30 14:02:51;;;;;;;37.63;17.40;;;;;;;;;;5077689;28;20039;-79
2021/09/30 14:05:18;;;;;;;18.45;11.77;;;;;;;;;;5077662;28;20367;-79
2021/09/30 14:07:45;;;;;;;23.10;11.98;;;;;;;;;;5077653;28;20040;-79
2021/09/30 14:10:14;;;;;;;24.05;11.23;;;;;;;;;;5077530;28;20434;-79
2021/09/30 14:12:40;;;;;;;21.58;10.77;;;;;;;;;;5077551;28;20435;-79
2021/09/30 14:15:07;;;;;;;21.33;11.02;;;;;;;;;;5076028;28;20330;-79
2021/09/30 14:17:33;;;;;;;22.33;11.52;;;;;;;;;;5076335;28;20524;-79
2021/09/30 14:19:59;;;;;;;24.25;10.95;;;;;;;;;;5077657;28;20028;-80
2021/09/30 14:22:26;;;;;;;24.63;11.75;;;;;;;;;;5076284;28;20020;-79
2021/09/30 14:24:52;;;;;;;20.13;11.60;;;;;;;;;;5077416;28;20024;-79
2021/09/30 14:27:20;;;;;;;17.92;10.85;;;;;;;;;;5077267;28;20410;-79
2021/09/30 14:29:46;;;;;;;22.65;10.82;;;;;;;;;;5077122;28;20139;-79
2021/09/30 14:32:13;;;;;;;22.70;11.52;;;;;;;;;;5077255;28;20056;-79
2021/09/30 14:34:40;;;;;;;22.00;9.60;;;;;;;;;;5077307;28;20020;-79
2021/09/30 14:37:06;;;;;;;19.23;9.65;;;;;;;;;;5077420;28;20031;-79
2021/09/30 14:39:32;;;;;;;21.58;8.32;;;;;;;;;;5077203;28;20056;-79
2021/09/30 14:41:58;;;;;;;15.77;8.57;;;;;;;;;;5076174;28;20024;-79
2021/09/30 14:44:24;;;;;;;15.43;8.23;;;;;;;;;;5077087;28;20025;-79
2021/09/30 14:46:51;;;;;;;21.35;8.95;;;;;;;;;;5076970;28;20024;-79
2021/09/30 14:49:17;;;;;;;15.93;9.07;;;;;;;;;;5076331;28;20024;-79
2021/09/30 14:51:43;;;;;;;18.48;8.85;;;;;;;;;;5075947;28;20032;-79
2021/09/30 14:54:09;;;;;;;16.98;9.52;;;;;;;;;;5076206;28;20031;-79
2021/09/30 14:56:36;;;;;;;23.42;11.40;;;;;;;;;;5076859;28;20035;-79
2021/09/30 14:59:02;;;;;;;19.58;9.35;;;;;;;;;;5077385;28;20298;-79
2021/09/30 15:01:28;;;;;;;25.33;10.38;;;;;;;;;;5076843;28;20437;-79
2021/09/30 15:03:55;;;;;;;20.15;10.15;;;;;;;;;;5076835;28;20028;-79
2021/09/30 15:06:21;;;;;;;20.58;9.38;;;;;;;;;;5076772;28;20151;-79
2021/09/30 15:08:47;;;;;;;23.63;11.15;;;;;;;;;;5076606;28;20318;-79
2021/09/30 15:11:13;;;;;;;18.33;10.30;;;;;;;;;;5076891;28;20045;-79
2021/09/30 15:13:39;;;;;;;20.20;11.30;;;;;;;;;;5076792;28;20021;-79
2021/09/30 15:16:07;;;;;;;26.48;11.15;;;;;;;;;;5076711;28;20028;-79
2021/09/30 15:21:21;;;;;;;23.00;10.65;;;;;;;;;;5077038;28;20032;-79
2021/09/30 15:23:47;;;;;;;21.98;10.70;;;;;;;;;;5076881;28;20402;-79
2021/09/30 15:26:16;;;;;;;18.52;11.18;;;;;;;;;;5076746;28;20342;-79
2021/09/30 15:28:42;;;;;;;21.05;11.45;;;;;;;;;;5076224;28;20032;-80
2021/09/30 15:31:08;;;;;;;19.90;11.40;;;;;;;;;;5076114;28;20066;-79
2021/09/30 15:33:35;;;;;;;24.02;11.98;;;;;;;;;;5075133;28;20029;-79
2021/09/30 15:36:01;;;;;;;34.08;18.38;;;;;;;;;;5075409;28;20136;-79
2021/09/30 15:38:27;;;;;;;20.25;11.55;;;;;;;;;;5076497;28;20058;-79
2021/09/30 15:40:54;;;;;;;22.60;13.05;;;;;;;;;;5076578;28;20024;-79
2021/09/30 15:43:20;;;;;;;23.52;13.52;;;;;;;;;;5076377;28;20456;-79
2021/09/30 15:45:46;;;;;;;25.75;13.13;;;;;;;;;;5076362;28;20028;-79
2021/09/30 15:48:13;;;;;;;18.25;11.52;;;;;;;;;;5076511;28;20031;-79
2021/09/30 15:50:39;;;;;;;19.48;11.55;;;;;;;;;;5076609;28;20359;-79
2021/09/30 15:53:05;;;;;;;21.20;14.00;;;;;;;;;;5076498;28;20032;-79
2021/09/30 15:55:31;;;;;;;19.27;11.68;;;;;;;;;;5076267;28;20047;-79
2021/09/30 15:57:57;;;;;;;20.67;12.20;;;;;;;;;;5076461;28;20417;-79
2021/09/30 16:00:23;;;;;;;19.00;11.52;;;;;;;;;;5075534;28;20040;-79
2021/09/30 16:02:49;;;;;;;18.77;11.02;;;;;;;;;;5079194;28;20044;-79
2021/09/30 16:05:16;;;;;;;15.80;10.30;;;;;;;;;;5079874;28;20033;-79
2021/09/30 16:07:42;;;;;;;18.70;12.25;;;;;;;;;;5080096;28;20020;-79
2021/09/30 16:10:08;;;;;;;24.17;13.45;;;;;;;;;;5079790;28;20024;-79
2021/09/30 16:12:34;;;;;;;19.27;11.38;;;;;;;;;;5078684;28;20093;-79
2021/09/30 16:15:00;;;;;;;19.83;10.70;;;;;;;;;;5078583;28;20032;-79
2021/09/30 16:17:26;;;;;;;13.60;9.52;;;;;;;;;;5079459;28;20096;-79
2021/09/30 16:19:53;;;;;;;14.93;9.82;;;;;;;;;;5079376;28;20028;-79
2021/09/30 16:22:19;;;;;;;20.23;10.40;;;;;;;;;;5079854;28;20024;-78
2021/09/30 16:24:45;;;;;;;12.48;9.95;;;;;;;;;;5079673;28;20162;-78
2021/09/30 16:27:11;;;;;;;13.13;9.18;;;;;;;;;;5079313;28;20028;-79
2021/09/30 16:29:37;;;;;;;17.13;9.68;;;;;;;;;;5079268;28;20055;-79
2021/09/30 16:32:04;;;;;;;17.50;10.90;;;;;;;;;;5079500;28;20025;-79
2021/09/30 16:34:30;;;;;;;18.33;9.80;;;;;;;;;;5076591;28;20017;-79
2021/09/30 16:36:56;;;;;;;18.65;10.48;;;;;;;;;;5079220;28;20038;-78
2021/09/30 16:39:22;;;;;;;19.00;11.55;;;;;;;;;;5078781;28;20024;-79
2021/09/30 16:41:48;;;;;;;16.15;10.13;;;;;;;;;;5078988;28;20021;-79
2021/09/30 16:44:15;;;;;;;12.68;9.32;;;;;;;;;;5077770;28;20081;-78
2021/09/30 16:46:42;;;;;;;14.43;9.13;;;;;;;;;;5078674;28;20445;-79
2021/09/30 16:49:08;;;;;;;18.67;10.48;;;;;;;;;;5078946;28;20033;-79
2021/09/30 16:51:34;;;;;;;16.55;10.30;;;;;;;;;;5077589;28;20040;-79
2021/09/30 16:54:00;;;;;;;16.17;10.75;;;;;;;;;;5078758;28;20016;-79
2021/09/30 16:56:26;;;;;;;27.67;15.95;;;;;;;;;;5078529;28;20017;-79
2021/09/30 16:58:53;;;;;;;30.25;18.65;;;;;;;;;;5077706;28;20033;-79
2021/09/30 17:01:19;;;;;;;24.00;14.02;;;;;;;;;;5078090;28;20431;-78
2021/09/30 17:03:45;;;;;;;26.45;14.65;;;;;;;;;;5078808;28;20069;-83
2021/09/30 17:06:12;;;;;;;15.65;11.20;;;;;;;;;;5078604;28;20024;-83
2021/09/30 17:08:38;;;;;;;20.52;12.60;;;;;;;;;;5078339;28;20092;-84
2021/09/30 17:11:05;;;;;;;21.52;11.77;;;;;;;;;;5078249;28;20029;-84
2021/09/30 17:13:31;;;;;;;19.60;12.32;;;;;;;;;;5077838;28;20061;-83
2021/09/30 17:16:00;;;;;;;17.70;12.23;;;;;;;;;;5078169;28;20025;-83
2021/09/30 17:18:28;;;;;;;20.70;13.13;;;;;;;;;;5078397;28;20087;-83
2021/09/30 17:20:56;;;;;;;26.42;13.13;;;;;;;;;;5077306;28;20025;-84